Time;durP1;ratioP1;P1;durP2;ratioP2;P2;SDS_P1;SDS_P2;PMS_P1;PMS_P2;Temp;Humidity;BMP_temperature;BMP_pressure;BME280_temperature;BME280_humidity;BME280_pressure;Samples;Min_cycle;Max_cycle;Signal;HPM_P1;HPM_P2
2022/10/26 00:00:51;;;;;;;15.45;10.88;;;;;;;;;;1698768;83;20997;-77
2022/10/26 00:03:19;;;;;;;16.82;12.60;;;;;;;;;;1671843;85;20904;-77
2022/10/26 00:05:46;;;;;;;14.07;11.55;;;;;;;;;;1671047;84;21323;-75
2022/10/26 00:08:14;;;;;;;19.10;11.78;;;;;;;;;;1674323;84;21058;-76
2022/10/26 00:10:41;;;;;;;18.15;11.50;;;;;;;;;;1671935;84;20960;-78
2022/10/26 00:13:10;;;;;;;17.40;11.95;;;;;;;;;;1669078;84;21553;-77
2022/10/26 00:15:41;;;;;;;17.50;11.73;;;;;;;;;;1678590;85;20955;-77
2022/10/26 00:18:08;;;;;;;15.23;11.88;;;;;;;;;;1673687;85;21101;-77
2022/10/26 00:20:36;;;;;;;15.15;11.20;;;;;;;;;;1663841;85;21117;-75
2022/10/26 00:23:05;;;;;;;15.98;11.20;;;;;;;;;;1680025;85;20992;-76
2022/10/26 00:25:32;;;;;;;17.98;11.97;;;;;;;;;;1686487;85;20923;-75
2022/10/26 00:27:58;;;;;;;17.87;12.20;;;;;;;;;;1676463;85;20948;-74
2022/10/26 00:30:25;;;;;;;25.30;13.03;;;;;;;;;;1674576;85;21339;-75
2022/10/26 00:32:52;;;;;;;19.45;14.18;;;;;;;;;;1669285;85;20884;-75
2022/10/26 00:35:18;;;;;;;16.07;12.73;;;;;;;;;;1647204;86;21521;-76
2022/10/26 00:37:45;;;;;;;23.00;12.93;;;;;;;;;;1663596;85;20892;-75
2022/10/26 00:40:11;;;;;;;19.75;13.22;;;;;;;;;;1658223;85;21520;-75
2022/10/26 00:42:38;;;;;;;19.27;13.70;;;;;;;;;;1644318;86;21184;-76
2022/10/26 00:45:25;;;;;;;24.32;14.28;;;;;;;;;;1650458;85;20973;-76
2022/10/26 00:48:01;;;;;;;18.35;13.58;;;;;;;;;;1667992;84;21438;-78
2022/10/26 00:50:36;;;;;;;18.77;13.78;;;;;;;;;;1670248;84;20948;-77
2022/10/26 00:53:03;;;;;;;18.57;13.68;;;;;;;;;;1666869;84;20932;-76
2022/10/26 00:55:32;;;;;;;20.95;14.80;;;;;;;;;;1684033;85;21134;-77
2022/10/26 00:58:00;;;;;;;24.05;14.10;;;;;;;;;;1684421;84;20959;-76
2022/10/26 01:00:28;;;;;;;25.12;15.88;;;;;;;;;;1676487;84;21058;-78
2022/10/26 01:02:55;;;;;;;23.83;14.70;;;;;;;;;;1677894;84;21030;-78
2022/10/26 01:05:21;;;;;;;18.75;15.00;;;;;;;;;;1665266;84;21102;-78
2022/10/26 01:07:48;;;;;;;29.95;15.68;;;;;;;;;;1683288;85;21557;-77
2022/10/26 01:10:17;;;;;;;;;;;;;;;;;;1681016;84;21434;-78
2022/10/26 01:12:44;;;;;;;19.45;14.23;;;;;;;;;;1676599;84;20115;-77
2022/10/26 01:15:10;;;;;;;23.27;16.73;;;;;;;;;;1657465;85;20868;-78
2022/10/26 01:17:56;;;;;;;25.08;16.55;;;;;;;;;;1649975;84;21540;-78
2022/10/26 01:20:36;;;;;;;21.20;14.90;;;;;;;;;;1678348;84;21114;-80
2022/10/26 01:23:15;;;;;;;21.05;15.55;;;;;;;;;;1676304;85;21161;-76
2022/10/26 01:25:49;;;;;;;21.07;14.70;;;;;;;;;;1666586;84;20920;-79
2022/10/26 01:28:37;;;;;;;20.43;15.38;;;;;;;;;;1635976;84;21054;-78
2022/10/26 01:31:04;;;;;;;20.43;14.87;;;;;;;;;;1641116;85;21160;-77
2022/10/26 01:33:34;;;;;;;19.67;14.68;;;;;;;;;;1664152;84;21622;-78
2022/10/26 01:36:07;;;;;;;23.83;15.85;;;;;;;;;;1688575;83;20951;-78
2022/10/26 01:38:45;;;;;;;21.87;14.63;;;;;;;;;;1681186;83;20895;-79
2022/10/26 01:41:27;;;;;;;20.82;15.15;;;;;;;;;;1688813;83;22081;-78
2022/10/26 01:44:06;;;;;;;21.27;15.08;;;;;;;;;;1694138;84;20884;-76
2022/10/26 01:46:36;;;;;;;17.85;13.88;;;;;;;;;;1667050;84;21311;-78
2022/10/26 01:49:06;;;;;;;19.73;13.65;;;;;;;;;;1647922;85;21458;-77
2022/10/26 01:51:33;;;;;;;21.62;14.30;;;;;;;;;;1646840;86;21000;-75
2022/10/26 01:54:00;;;;;;;21.48;14.47;;;;;;;;;;1641483;85;21461;-77
2022/10/26 01:56:29;;;;;;;26.68;13.93;;;;;;;;;;1648281;85;21062;-76
2022/10/26 01:59:20;;;;;;;24.95;13.30;;;;;;;;;;1653498;84;21148;-77
2022/10/26 02:01:51;;;;;;;22.27;13.55;;;;;;;;;;1709259;82;20953;-76
2022/10/26 02:04:36;;;;;;;18.27;13.15;;;;;;;;;;1709194;82;21014;-76
2022/10/26 02:07:19;;;;;;;18.82;13.38;;;;;;;;;;1707700;82;20899;-76
2022/10/26 02:10:10;;;;;;;21.07;13.20;;;;;;;;;;1709457;82;21137;-75
2022/10/26 02:12:43;;;;;;;19.05;14.70;;;;;;;;;;1709647;82;21632;-76
2022/10/26 02:15:17;;;;;;;19.42;14.05;;;;;;;;;;1657709;84;20905;-76
2022/10/26 02:17:54;;;;;;;14.53;12.78;;;;;;;;;;1707634;82;20931;-76
2022/10/26 02:20:26;;;;;;;20.20;13.13;;;;;;;;;;1691954;82;21000;-78
2022/10/26 02:22:54;;;;;;;18.45;14.43;;;;;;;;;;1690374;82;20935;-77
2022/10/26 02:25:29;;;;;;;17.30;13.53;;;;;;;;;;1690674;83;20943;-78
2022/10/26 02:27:59;;;;;;;20.65;13.78;;;;;;;;;;1690774;82;21042;-77
2022/10/26 02:30:26;;;;;;;19.45;12.90;;;;;;;;;;1691002;83;21650;-77
2022/10/26 02:32:54;;;;;;;18.60;13.30;;;;;;;;;;1683315;83;20976;-78
2022/10/26 02:35:26;;;;;;;18.62;13.72;;;;;;;;;;1681799;84;21406;-77
2022/10/26 02:37:52;;;;;;;20.37;13.15;;;;;;;;;;1709024;83;21133;-78
2022/10/26 02:40:21;;;;;;;16.85;11.93;;;;;;;;;;1683559;84;20990;-76
2022/10/26 02:42:49;;;;;;;18.70;11.30;;;;;;;;;;1672095;83;21431;-78
2022/10/26 02:45:18;;;;;;;16.95;11.73;;;;;;;;;;1686022;84;21569;-77
2022/10/26 02:47:47;;;;;;;;;;;;;;;;;;1689206;83;21075;-79
2022/10/26 02:50:21;;;;;;;;;;;;;;;;;;1699323;84;21240;-81
2022/10/26 02:52:57;;;;;;;14.55;11.93;;;;;;;;;;1688647;84;21109;-77
2022/10/26 02:55:27;;;;;;;15.48;12.60;;;;;;;;;;1670867;85;20960;-77
2022/10/26 02:57:55;;;;;;;18.17;11.93;;;;;;;;;;1666179;85;20880;-77
2022/10/26 03:00:21;;;;;;;21.60;12.88;;;;;;;;;;1634654;85;20969;-77
2022/10/26 03:02:54;;;;;;;13.68;11.60;;;;;;;;;;1647502;85;21300;-77
2022/10/26 03:05:23;;;;;;;17.90;11.43;;;;;;;;;;1662413;85;20963;-77
2022/10/26 03:07:49;;;;;;;15.28;11.85;;;;;;;;;;1692997;84;20975;-77
2022/10/26 03:10:17;;;;;;;15.53;12.53;;;;;;;;;;1687786;84;21011;-77
2022/10/26 03:12:49;;;;;;;;;;;;;;;;;;1687436;84;20964;-78
2022/10/26 03:15:15;;;;;;;14.55;11.08;;;;;;;;;;1685512;84;21208;-77
2022/10/26 03:17:43;;;;;;;14.43;11.20;;;;;;;;;;1692376;84;20990;-76
2022/10/26 03:20:10;;;;;;;13.85;12.35;;;;;;;;;;1694066;84;20955;-78
2022/10/26 03:22:37;;;;;;;14.63;12.35;;;;;;;;;;1665796;85;21007;-76
2022/10/26 03:25:04;;;;;;;15.20;11.03;;;;;;;;;;1672052;85;21474;-77
2022/10/26 03:27:30;;;;;;;17.82;12.18;;;;;;;;;;1665123;85;21554;-77
2022/10/26 03:29:57;;;;;;;15.98;12.13;;;;;;;;;;1668863;85;20991;-77
2022/10/26 03:32:23;;;;;;;14.73;10.88;;;;;;;;;;1661559;85;21146;-76
2022/10/26 03:34:50;;;;;;;15.05;12.07;;;;;;;;;;1663263;84;21580;-79
2022/10/26 03:37:16;;;;;;;14.90;11.95;;;;;;;;;;1658565;84;21019;-78
2022/10/26 03:39:44;;;;;;;17.07;12.53;;;;;;;;;;1659934;84;22656;-77
2022/10/26 03:42:13;;;;;;;15.40;11.70;;;;;;;;;;1658313;85;21106;-78
2022/10/26 03:44:43;;;;;;;15.15;11.53;;;;;;;;;;1658845;85;20932;-77
2022/10/26 03:47:10;;;;;;;24.12;13.22;;;;;;;;;;1666587;84;20971;-78
2022/10/26 03:49:38;;;;;;;18.02;11.75;;;;;;;;;;1684132;84;20921;-79
2022/10/26 03:52:06;;;;;;;20.88;13.80;;;;;;;;;;1671212;84;21249;-77
2022/10/26 03:54:37;;;;;;;16.52;12.25;;;;;;;;;;1671442;84;21011;-77
2022/10/26 03:57:05;;;;;;;13.55;11.97;;;;;;;;;;1685151;84;20940;-75
2022/10/26 03:59:31;;;;;;;14.33;12.63;;;;;;;;;;1672954;84;21439;-76
2022/10/26 04:01:57;;;;;;;23.40;13.43;;;;;;;;;;1682198;84;20916;-76
2022/10/26 04:04:24;;;;;;;17.87;13.68;;;;;;;;;;1700865;83;21070;-76
2022/10/26 04:06:52;;;;;;;16.40;13.00;;;;;;;;;;1696290;83;21079;-78
2022/10/26 04:09:19;;;;;;;16.00;13.28;;;;;;;;;;1661561;85;21007;-77
2022/10/26 04:11:46;;;;;;;17.52;14.15;;;;;;;;;;1669337;84;21489;-77
2022/10/26 04:14:13;;;;;;;20.12;14.23;;;;;;;;;;1664690;84;20863;-76
2022/10/26 04:16:40;;;;;;;21.02;13.72;;;;;;;;;;1667076;84;21136;-77
2022/10/26 04:19:07;;;;;;;22.73;13.70;;;;;;;;;;1670020;84;20953;-75
2022/10/26 04:21:34;;;;;;;21.57;15.20;;;;;;;;;;1667862;84;20961;-75
2022/10/26 04:24:02;;;;;;;25.43;15.50;;;;;;;;;;1675302;84;20903;-76
2022/10/26 04:26:29;;;;;;;21.15;13.68;;;;;;;;;;1682599;84;21067;-77
2022/10/26 04:28:55;;;;;;;22.32;15.40;;;;;;;;;;1668094;84;21843;-76
2022/10/26 04:31:22;;;;;;;22.70;15.18;;;;;;;;;;1691543;83;20932;-76
2022/10/26 04:33:49;;;;;;;23.00;15.68;;;;;;;;;;1697384;83;20971;-75
2022/10/26 04:36:16;;;;;;;22.17;16.27;;;;;;;;;;1684958;83;21038;-75
2022/10/26 04:38:43;;;;;;;22.48;15.28;;;;;;;;;;1658466;85;20952;-75
2022/10/26 04:41:10;;;;;;;19.90;15.05;;;;;;;;;;1659572;85;21674;-75
2022/10/26 04:43:37;;;;;;;21.68;15.58;;;;;;;;;;1659916;85;21058;-77
2022/10/26 04:46:03;;;;;;;22.02;16.40;;;;;;;;;;1655326;85;20996;-76
2022/10/26 04:48:30;;;;;;;26.50;14.95;;;;;;;;;;1672715;84;21125;-77
2022/10/26 04:50:59;;;;;;;21.90;15.50;;;;;;;;;;1678742;84;21003;-77
2022/10/26 04:53:26;;;;;;;20.00;15.43;;;;;;;;;;1678277;85;21415;-75
2022/10/26 04:55:57;;;;;;;22.35;17.77;;;;;;;;;;1698613;83;20912;-77
2022/10/26 04:58:24;;;;;;;23.45;17.20;;;;;;;;;;1650755;85;20948;-75
2022/10/26 05:00:50;;;;;;;22.00;15.68;;;;;;;;;;1676599;85;21514;-75
2022/10/26 05:03:17;;;;;;;21.00;15.63;;;;;;;;;;1667410;84;21481;-75
2022/10/26 05:05:44;;;;;;;29.18;17.05;;;;;;;;;;1651478;85;21260;-76
2022/10/26 05:08:10;;;;;;;30.50;18.15;;;;;;;;;;1622798;85;21008;-75
2022/10/26 05:10:37;;;;;;;23.75;16.73;;;;;;;;;;1662240;85;20996;-74
2022/10/26 05:13:03;;;;;;;24.95;17.45;;;;;;;;;;1670316;85;20935;-77
2022/10/26 05:15:30;;;;;;;22.30;16.05;;;;;;;;;;1668328;85;21161;-77
2022/10/26 05:17:58;;;;;;;28.83;18.17;;;;;;;;;;1654754;85;22006;-75
2022/10/26 05:20:30;;;;;;;22.67;17.40;;;;;;;;;;1663932;85;21592;-75
2022/10/26 05:22:57;;;;;;;30.23;18.48;;;;;;;;;;1695075;83;21023;-74
2022/10/26 05:25:24;;;;;;;27.07;19.43;;;;;;;;;;1707559;83;21112;-76
2022/10/26 05:27:51;;;;;;;25.40;18.80;;;;;;;;;;1695901;83;20948;-76
2022/10/26 05:30:18;;;;;;;29.95;18.02;;;;;;;;;;1696117;84;21210;-77
2022/10/26 05:32:54;;;;;;;22.65;18.67;;;;;;;;;;1690399;84;20912;-75
2022/10/26 05:35:21;;;;;;;29.40;18.48;;;;;;;;;;1668720;84;20951;-75
2022/10/26 05:37:48;;;;;;;27.67;18.73;;;;;;;;;;1670626;84;21516;-75
2022/10/26 05:40:16;;;;;;;26.73;18.60;;;;;;;;;;1661086;84;20895;-74
2022/10/26 05:42:43;;;;;;;28.10;18.90;;;;;;;;;;1664476;84;21137;-76
2022/10/26 05:45:10;;;;;;;28.75;18.30;;;;;;;;;;1689109;83;21285;-76
2022/10/26 05:47:38;;;;;;;25.32;19.00;;;;;;;;;;1674627;83;21510;-78
2022/10/26 05:50:05;;;;;;;23.90;18.23;;;;;;;;;;1691470;84;20968;-76
2022/10/26 05:52:44;;;;;;;25.68;19.00;;;;;;;;;;1694177;83;20947;-75
2022/10/26 05:55:14;;;;;;;23.77;18.23;;;;;;;;;;1665833;85;21826;-77
2022/10/26 05:57:42;;;;;;;26.23;19.62;;;;;;;;;;1692447;83;21449;-76
2022/10/26 06:00:17;;;;;;;26.35;18.15;;;;;;;;;;1646246;85;21527;-76
2022/10/26 06:02:57;;;;;;;21.77;17.05;;;;;;;;;;1664816;84;21073;-77
2022/10/26 06:05:26;;;;;;;30.77;19.07;;;;;;;;;;1693928;83;20971;-78
2022/10/26 06:07:54;;;;;;;23.95;17.20;;;;;;;;;;1695673;84;21872;-74
2022/10/26 06:10:21;;;;;;;32.80;19.02;;;;;;;;;;1687950;83;20966;-76
2022/10/26 06:12:48;;;;;;;23.42;18.15;;;;;;;;;;1655975;86;20930;-78
2022/10/26 06:15:19;;;;;;;27.40;18.30;;;;;;;;;;1682004;84;21035;-76
2022/10/26 06:17:57;;;;;;;23.77;18.15;;;;;;;;;;1686862;84;21066;-75
2022/10/26 06:20:29;;;;;;;28.55;16.75;;;;;;;;;;1678350;83;21624;-76
2022/10/26 06:23:20;;;;;;;30.80;17.95;;;;;;;;;;1683391;84;20889;-76
2022/10/26 06:26:05;;;;;;;26.65;17.10;;;;;;;;;;1662433;84;21520;-75
2022/10/26 06:28:51;;;;;;;27.07;18.32;;;;;;;;;;1690479;83;21028;-76
2022/10/26 06:31:18;;;;;;;23.40;17.32;;;;;;;;;;1669227;85;21033;-76
2022/10/26 06:33:44;;;;;;;24.55;15.95;;;;;;;;;;1682084;84;21232;-76
2022/10/26 06:36:21;;;;;;;38.63;17.60;;;;;;;;;;1655947;85;20894;-76
2022/10/26 06:38:54;;;;;;;24.57;16.93;;;;;;;;;;1682188;84;20996;-77
2022/10/26 06:41:21;;;;;;;28.57;17.35;;;;;;;;;;1655502;84;20999;-77
2022/10/26 06:43:48;;;;;;;21.60;15.93;;;;;;;;;;1685755;84;21074;-76
2022/10/26 06:46:33;;;;;;;28.17;17.55;;;;;;;;;;1679571;83;21577;-75
2022/10/26 06:49:09;;;;;;;24.87;17.07;;;;;;;;;;1688727;83;21030;-74
2022/10/26 06:51:59;;;;;;;22.10;17.12;;;;;;;;;;1671535;85;20968;-75
2022/10/26 06:54:53;;;;;;;26.93;17.92;;;;;;;;;;1681663;85;20864;-75
2022/10/26 06:57:25;;;;;;;21.00;16.35;;;;;;;;;;1684719;85;20975;-75
2022/10/26 06:59:54;;;;;;;25.45;16.82;;;;;;;;;;1667530;85;21662;-76
2022/10/26 07:02:21;;;;;;;25.70;16.32;;;;;;;;;;1679279;85;20935;-73
2022/10/26 07:04:47;;;;;;;22.90;16.20;;;;;;;;;;1664908;84;20926;-75
2022/10/26 07:07:23;;;;;;;21.68;15.80;;;;;;;;;;1662011;85;21417;-75
2022/10/26 07:09:50;;;;;;;20.52;15.08;;;;;;;;;;1669528;84;21010;-75
2022/10/26 07:12:16;;;;;;;22.22;14.98;;;;;;;;;;1679132;85;21176;-75
2022/10/26 07:14:44;;;;;;;18.57;13.65;;;;;;;;;;1679152;85;25102;-74
2022/10/26 07:17:11;;;;;;;18.20;13.15;;;;;;;;;;1679642;85;20942;-74
2022/10/26 07:19:39;;;;;;;21.87;13.65;;;;;;;;;;1672608;85;21576;-73
2022/10/26 07:22:07;;;;;;;24.57;13.90;;;;;;;;;;1680806;85;20952;-75
2022/10/26 07:24:35;;;;;;;22.00;13.53;;;;;;;;;;1684383;84;21414;-74
2022/10/26 07:27:01;;;;;;;18.60;12.07;;;;;;;;;;1667118;85;20883;-75
2022/10/26 07:29:30;;;;;;;15.03;11.70;;;;;;;;;;1666731;84;20982;-75
2022/10/26 07:31:57;;;;;;;19.57;12.68;;;;;;;;;;1684885;84;21576;-75
2022/10/26 07:34:23;;;;;;;17.50;11.63;;;;;;;;;;1695207;83;20995;-73
2022/10/26 07:36:50;;;;;;;21.40;12.63;;;;;;;;;;1687515;84;21692;-74
2022/10/26 07:39:16;;;;;;;18.25;11.10;;;;;;;;;;1694106;84;21634;-76
2022/10/26 07:41:44;;;;;;;17.12;11.33;;;;;;;;;;1687150;83;21138;-73
2022/10/26 07:44:10;;;;;;;19.23;11.08;;;;;;;;;;1657472;85;21059;-76
2022/10/26 07:46:37;;;;;;;18.17;12.40;;;;;;;;;;1659839;85;21093;-76
2022/10/26 07:49:03;;;;;;;16.23;11.88;;;;;;;;;;1653239;85;21664;-73
2022/10/26 07:51:30;;;;;;;19.92;11.57;;;;;;;;;;1675215;85;20947;-73
2022/10/26 07:53:57;;;;;;;16.50;11.80;;;;;;;;;;1672350;85;20916;-75
2022/10/26 07:56:23;;;;;;;14.13;11.05;;;;;;;;;;1662653;84;21011;-75
2022/10/26 07:58:53;;;;;;;24.87;11.65;;;;;;;;;;1679236;85;20900;-72
2022/10/26 08:01:20;;;;;;;19.17;10.75;;;;;;;;;;1679978;85;21131;-75
2022/10/26 08:03:46;;;;;;;20.32;11.30;;;;;;;;;;1661523;84;20963;-75
2022/10/26 08:06:13;;;;;;;18.37;12.93;;;;;;;;;;1662768;85;21415;-73
2022/10/26 08:08:39;;;;;;;17.52;11.63;;;;;;;;;;1676251;84;20939;-73
2022/10/26 08:11:06;;;;;;;19.17;11.97;;;;;;;;;;1660670;85;20884;-73
2022/10/26 08:13:34;;;;;;;21.80;12.33;;;;;;;;;;1677600;85;21444;-75
2022/10/26 08:16:03;;;;;;;16.30;11.83;;;;;;;;;;1665049;84;20986;-75
2022/10/26 08:18:31;;;;;;;17.98;11.63;;;;;;;;;;1669465;84;21011;-72
2022/10/26 08:21:04;;;;;;;18.67;12.63;;;;;;;;;;1673547;85;20923;-75
2022/10/26 08:23:31;;;;;;;19.07;12.43;;;;;;;;;;1693700;83;20955;-70
2022/10/26 08:26:02;;;;;;;21.70;12.68;;;;;;;;;;1660593;84;21592;-75
2022/10/26 08:28:29;;;;;;;21.65;14.10;;;;;;;;;;1668797;84;21120;-72
2022/10/26 08:30:55;;;;;;;21.12;13.68;;;;;;;;;;1659582;85;21054;-75
2022/10/26 08:33:22;;;;;;;21.07;13.60;;;;;;;;;;1658628;84;21071;-73
2022/10/26 08:35:55;;;;;;;21.07;13.18;;;;;;;;;;1649346;87;21106;-73
2022/10/26 08:38:21;;;;;;;20.82;13.62;;;;;;;;;;1630116;86;21152;-75
2022/10/26 08:40:47;;;;;;;24.20;14.50;;;;;;;;;;1643122;86;20956;-75
2022/10/26 08:43:28;;;;;;;25.12;15.43;;;;;;;;;;1625691;87;20968;-73
2022/10/26 08:46:14;;;;;;;23.27;14.00;;;;;;;;;;1651412;85;20912;-73
2022/10/26 08:48:47;;;;;;;25.97;14.78;;;;;;;;;;1660084;84;21063;-78
2022/10/26 08:51:19;;;;;;;20.40;14.10;;;;;;;;;;1669109;84;21445;-76
2022/10/26 08:53:55;;;;;;;23.07;13.85;;;;;;;;;;1687580;84;20976;-72
2022/10/26 08:56:28;;;;;;;17.12;13.58;;;;;;;;;;1682759;84;20865;-76
2022/10/26 08:59:16;;;;;;;21.33;13.13;;;;;;;;;;1693439;83;20935;-73
2022/10/26 09:01:43;;;;;;;23.38;13.05;;;;;;;;;;1663426;84;20932;-77
2022/10/26 09:04:11;;;;;;;27.35;13.15;;;;;;;;;;1675583;84;21147;-75
2022/10/26 09:06:49;;;;;;;;;;;;;;;;;;1674735;84;20956;-73
2022/10/26 09:09:25;;;;;;;23.52;12.82;;;;;;;;;;1660631;84;20186;-71
2022/10/26 09:12:07;;;;;;;17.23;11.53;;;;;;;;;;1669505;84;21430;-75
2022/10/26 09:14:44;;;;;;;18.90;12.33;;;;;;;;;;1682981;84;20936;-72
2022/10/26 09:17:17;;;;;;;16.27;12.45;;;;;;;;;;1669748;84;21658;-73
2022/10/26 09:19:57;;;;;;;19.52;12.15;;;;;;;;;;1682181;84;20992;-74
2022/10/26 09:22:26;;;;;;;16.95;11.12;;;;;;;;;;1684108;85;20904;-73
2022/10/26 09:24:56;;;;;;;14.60;11.48;;;;;;;;;;1684039;84;21474;-72
2022/10/26 09:27:31;;;;;;;19.98;11.75;;;;;;;;;;1682905;84;21058;-73
2022/10/26 09:29:58;;;;;;;19.25;12.47;;;;;;;;;;1672352;84;21115;-74
2022/10/26 09:32:32;;;;;;;15.90;11.60;;;;;;;;;;1719977;83;20987;-74
2022/10/26 09:35:02;;;;;;;14.90;11.40;;;;;;;;;;1655697;84;21647;-71
2022/10/26 09:37:32;;;;;;;22.45;12.40;;;;;;;;;;1652523;85;21003;-74
2022/10/26 09:40:08;;;;;;;16.95;11.28;;;;;;;;;;1638565;86;20944;-74
2022/10/26 09:42:43;;;;;;;14.35;11.05;;;;;;;;;;1629229;87;21795;-72
2022/10/26 09:45:18;;;;;;;18.75;11.25;;;;;;;;;;1623712;86;21060;-73
2022/10/26 09:47:51;;;;;;;21.05;11.65;;;;;;;;;;1629387;85;20966;-72
2022/10/26 09:50:23;;;;;;;18.40;12.58;;;;;;;;;;1629525;86;21076;-72
2022/10/26 09:52:50;;;;;;;21.80;12.25;;;;;;;;;;1631762;86;20973;-73
2022/10/26 09:55:16;;;;;;;14.90;11.18;;;;;;;;;;1628842;87;21713;-73
2022/10/26 09:57:45;;;;;;;18.98;9.75;;;;;;;;;;1638895;86;20902;-74
2022/10/26 10:00:17;;;;;;;16.97;10.80;;;;;;;;;;1635199;86;21064;-76
2022/10/26 10:02:51;;;;;;;14.23;10.10;;;;;;;;;;1632225;86;21207;-74
2022/10/26 10:05:22;;;;;;;13.10;9.75;;;;;;;;;;1636364;86;21033;-73
2022/10/26 10:07:49;;;;;;;15.30;10.00;;;;;;;;;;1637564;85;21206;-70
2022/10/26 10:10:18;;;;;;;15.50;9.55;;;;;;;;;;1633327;86;21495;-71
2022/10/26 10:12:46;;;;;;;12.15;8.90;;;;;;;;;;1631874;86;21041;-70
2022/10/26 10:15:18;;;;;;;13.00;7.78;;;;;;;;;;1627796;86;21064;-73
2022/10/26 10:17:50;;;;;;;11.05;7.50;;;;;;;;;;1634427;86;21107;-75
2022/10/26 10:20:32;;;;;;;11.18;7.28;;;;;;;;;;1661749;84;22771;-71
2022/10/26 10:23:00;;;;;;;9.93;6.87;;;;;;;;;;1681971;84;20990;-70
2022/10/26 10:25:39;;;;;;;12.20;7.60;;;;;;;;;;1659423;84;20919;-71
2022/10/26 10:28:21;;;;;;;10.78;6.80;;;;;;;;;;1689729;84;21114;-72
2022/10/26 10:30:56;;;;;;;11.97;8.45;;;;;;;;;;1668206;84;21621;-69
2022/10/26 10:33:23;;;;;;;11.48;8.18;;;;;;;;;;1688671;84;21255;-73
2022/10/26 10:35:50;;;;;;;12.65;8.15;;;;;;;;;;1676702;83;38645;-73
2022/10/26 10:38:20;;;;;;;9.73;8.43;;;;;;;;;;1710012;83;21462;-71
2022/10/26 10:40:50;;;;;;;;;;;;;;;;;;1702490;83;20916;-73
2022/10/26 10:43:16;;;;;;;13.40;8.53;;;;;;;;;;1691129;83;20142;-75
2022/10/26 10:45:48;;;;;;;12.30;8.68;;;;;;;;;;1680594;83;20891;-74
2022/10/26 10:48:17;;;;;;;13.10;8.78;;;;;;;;;;1660703;83;21136;-74
2022/10/26 10:51:01;;;;;;;10.58;8.70;;;;;;;;;;1656922;84;21046;-75
2022/10/26 10:53:42;;;;;;;14.87;8.28;;;;;;;;;;1656475;85;21130;-72
2022/10/26 10:56:27;;;;;;;9.70;7.85;;;;;;;;;;1662356;84;21520;-72
2022/10/26 10:59:14;;;;;;;13.60;8.20;;;;;;;;;;1648007;85;21402;-72
2022/10/26 11:01:45;;;;;;;9.18;7.50;;;;;;;;;;1648020;85;20958;-73
2022/10/26 11:04:21;;;;;;;9.10;6.80;;;;;;;;;;1651750;85;20932;-73
2022/10/26 11:06:47;;;;;;;9.35;7.17;;;;;;;;;;1647222;85;21006;-73
2022/10/26 11:09:19;;;;;;;9.38;7.08;;;;;;;;;;1655974;85;21056;-74
2022/10/26 11:12:01;;;;;;;9.68;6.92;;;;;;;;;;1649808;85;21167;-70
2022/10/26 11:14:37;;;;;;;12.73;7.83;;;;;;;;;;1660380;85;20896;-73
2022/10/26 11:17:15;;;;;;;9.73;6.95;;;;;;;;;;1659838;85;20940;-72
2022/10/26 11:19:48;;;;;;;13.15;7.30;;;;;;;;;;1656074;85;20990;-74
2022/10/26 11:22:21;;;;;;;9.98;7.40;;;;;;;;;;1661695;85;21442;-73
2022/10/26 11:24:55;;;;;;;7.35;6.60;;;;;;;;;;1649892;85;21913;-72
2022/10/26 11:27:25;;;;;;;8.28;6.15;;;;;;;;;;1652460;85;20966;-72
2022/10/26 11:30:10;;;;;;;7.33;5.33;;;;;;;;;;1657135;85;21493;-72
2022/10/26 11:32:43;;;;;;;8.58;5.72;;;;;;;;;;1641828;86;21093;-72
2022/10/26 11:35:27;;;;;;;8.63;5.42;;;;;;;;;;1686514;83;21063;-71
2022/10/26 11:38:02;;;;;;;9.05;5.90;;;;;;;;;;1689463;83;21248;-72
2022/10/26 11:40:41;;;;;;;5.87;4.65;;;;;;;;;;1693271;84;21084;-72
2022/10/26 11:43:25;;;;;;;11.00;4.22;;;;;;;;;;1673702;84;20991;-72
2022/10/26 11:46:04;;;;;;;8.85;5.25;;;;;;;;;;1685082;84;20996;-73
2022/10/26 11:48:34;;;;;;;10.50;5.58;;;;;;;;;;1665299;85;21352;-73
2022/10/26 11:51:02;;;;;;;5.72;5.00;;;;;;;;;;1658878;84;21157;-73
2022/10/26 11:53:38;;;;;;;7.67;5.47;;;;;;;;;;1673749;84;21129;-70
2022/10/26 11:56:30;;;;;;;5.97;5.47;;;;;;;;;;1671325;84;20940;-72
2022/10/26 11:58:58;;;;;;;7.50;5.45;;;;;;;;;;1686436;85;21074;-72
2022/10/26 12:01:25;;;;;;;6.30;5.47;;;;;;;;;;1678944;84;20939;-74
2022/10/26 12:03:52;;;;;;;6.42;5.28;;;;;;;;;;1689522;85;21806;-71
2022/10/26 12:06:22;;;;;;;11.90;5.93;;;;;;;;;;1679139;84;20891;-72
2022/10/26 12:08:55;;;;;;;7.53;5.70;;;;;;;;;;1672812;84;21003;-73
2022/10/26 12:11:35;;;;;;;8.28;5.47;;;;;;;;;;1685624;84;21478;-72
2022/10/26 12:14:09;;;;;;;6.65;4.90;;;;;;;;;;1674066;84;21557;-72
2022/10/26 12:17:11;;;;;;;6.45;4.75;;;;;;;;;;1682129;84;21179;-75
2022/10/26 12:20:04;;;;;;;6.22;5.05;;;;;;;;;;1679012;84;21031;-73
2022/10/26 12:22:32;;;;;;;7.00;5.12;;;;;;;;;;1677377;83;21019;-73
2022/10/26 12:25:06;;;;;;;22.27;5.20;;;;;;;;;;1689958;85;20944;-72
2022/10/26 12:27:42;;;;;;;5.50;4.47;;;;;;;;;;1669183;84;20964;-70
2022/10/26 12:30:20;;;;;;;7.47;4.80;;;;;;;;;;1673931;84;20999;-70
2022/10/26 12:32:50;;;;;;;7.55;5.58;;;;;;;;;;1670595;84;21772;-73
2022/10/26 12:35:43;;;;;;;6.40;5.15;;;;;;;;;;1674624;84;21434;-74
2022/10/26 12:38:28;;;;;;;7.03;4.97;;;;;;;;;;1632432;86;20998;-73
2022/10/26 12:41:07;;;;;;;5.85;5.20;;;;;;;;;;1628058;86;20927;-73
2022/10/26 12:43:36;;;;;;;7.40;5.95;;;;;;;;;;1630763;86;21833;-74
2022/10/26 12:46:16;;;;;;;14.58;6.08;;;;;;;;;;1584466;88;21891;-75
2022/10/26 12:48:49;;;;;;;7.47;5.50;;;;;;;;;;1590727;87;21155;-74
2022/10/26 12:51:26;;;;;;;7.67;6.28;;;;;;;;;;1589899;88;21015;-72
2022/10/26 12:54:18;;;;;;;8.38;6.17;;;;;;;;;;1590645;88;21225;-76
2022/10/26 12:57:06;;;;;;;8.35;5.40;;;;;;;;;;1563709;89;21359;-71
2022/10/26 12:59:39;;;;;;;7.10;4.60;;;;;;;;;;1588062;87;21693;-71
2022/10/26 13:02:43;;;;;;;6.40;4.00;;;;;;;;;;1581240;87;20978;-73
2022/10/26 13:05:45;;;;;;;3.85;3.55;;;;;;;;;;1596134;89;21133;-72
2022/10/26 13:08:11;;;;;;;4.35;3.95;;;;;;;;;;1597054;89;21106;-74
2022/10/26 13:10:41;;;;;;;5.47;3.75;;;;;;;;;;1559805;89;21297;-72
2022/10/26 13:13:08;;;;;;;15.23;10.40;;;;;;;;;;1656270;84;20943;-73
2022/10/26 13:15:43;;;;;;;6.70;4.58;;;;;;;;;;1665691;84;20904;-73
2022/10/26 13:18:17;;;;;;;4.75;4.20;;;;;;;;;;1683144;84;20971;-71
2022/10/26 13:21:06;;;;;;;6.87;5.40;;;;;;;;;;1668857;83;20891;-72
2022/10/26 13:23:34;;;;;;;4.95;4.45;;;;;;;;;;1672323;83;21171;-73
2022/10/26 13:26:07;;;;;;;6.83;4.80;;;;;;;;;;1681145;84;21003;-72
2022/10/26 13:28:42;;;;;;;9.08;4.45;;;;;;;;;;1676727;84;20984;-72
2022/10/26 13:31:19;;;;;;;9.03;5.60;;;;;;;;;;1671794;84;20863;-72
2022/10/26 13:33:45;;;;;;;7.65;5.35;;;;;;;;;;1670617;84;21001;-73
2022/10/26 13:36:33;;;;;;;5.25;4.67;;;;;;;;;;1674588;84;21247;-71
2022/10/26 13:39:01;;;;;;;11.22;5.87;;;;;;;;;;1658710;85;20971;-72
2022/10/26 13:41:38;;;;;;;6.00;5.28;;;;;;;;;;1661616;84;21525;-71
2022/10/26 13:44:07;;;;;;;11.38;5.67;;;;;;;;;;1646891;85;20865;-71
2022/10/26 13:46:36;;;;;;;5.40;4.90;;;;;;;;;;1657029;84;21505;-73
2022/10/26 13:49:09;;;;;;;9.03;5.70;;;;;;;;;;1661838;84;21256;-72
2022/10/26 13:51:42;;;;;;;11.45;5.92;;;;;;;;;;1662244;85;20852;-73
2022/10/26 13:54:15;;;;;;;7.58;6.72;;;;;;;;;;1664369;85;20995;-73
2022/10/26 13:56:45;;;;;;;7.40;6.42;;;;;;;;;;1662858;84;21168;-73
2022/10/26 13:59:12;;;;;;;7.60;6.67;;;;;;;;;;1661310;84;20943;-72
2022/10/26 14:01:40;;;;;;;10.25;7.05;;;;;;;;;;1666609;85;22047;-74
2022/10/26 14:04:26;;;;;;;7.62;6.28;;;;;;;;;;1661745;84;21434;-72
2022/10/26 14:06:52;;;;;;;7.90;7.03;;;;;;;;;;1662813;84;20936;-70
2022/10/26 14:09:19;;;;;;;8.80;6.65;;;;;;;;;;1646811;85;21537;-71
2022/10/26 14:11:57;;;;;;;8.90;6.65;;;;;;;;;;1660775;85;20865;-73
2022/10/26 14:14:30;;;;;;;7.07;6.37;;;;;;;;;;1660278;83;22009;-73
2022/10/26 14:16:56;;;;;;;9.28;7.00;;;;;;;;;;1663160;85;21012;-73
2022/10/26 14:19:27;;;;;;;9.15;7.70;;;;;;;;;;1642389;85;21023;-74
2022/10/26 14:21:53;;;;;;;7.15;6.53;;;;;;;;;;1660861;84;20897;-73
2022/10/26 14:24:23;;;;;;;7.80;6.50;;;;;;;;;;1661577;84;20996;-72
2022/10/26 14:26:49;;;;;;;13.25;7.60;;;;;;;;;;1662452;84;21145;-74
2022/10/26 14:29:24;;;;;;;9.85;7.53;;;;;;;;;;1660051;84;20852;-71
2022/10/26 14:31:51;;;;;;;8.03;6.62;;;;;;;;;;1659058;84;20916;-73
2022/10/26 14:34:18;;;;;;;14.68;7.20;;;;;;;;;;1643530;85;20903;-72
2022/10/26 14:36:57;;;;;;;7.92;6.58;;;;;;;;;;1633724;85;21014;-71
2022/10/26 14:39:30;;;;;;;7.75;6.83;;;;;;;;;;1634966;86;21176;-74
2022/10/26 14:41:56;;;;;;;8.83;7.28;;;;;;;;;;1636112;86;20931;-74
2022/10/26 14:44:23;;;;;;;9.98;7.17;;;;;;;;;;1635270;86;20974;-73
2022/10/26 14:46:49;;;;;;;8.20;7.37;;;;;;;;;;1674591;84;20977;-75
2022/10/26 14:49:21;;;;;;;7.80;6.83;;;;;;;;;;1682733;84;20857;-73
2022/10/26 14:51:48;;;;;;;10.13;6.83;;;;;;;;;;1670720;84;21222;-74